sensor_id;sensor_type;location;lat;lon;timestamp;P1;durP1;ratioP1;P2;durP2;ratioP2
37777;SDS011;23615;51.506;7.678;2022-10-26T00:00:48;0.53;;;0.30;;
37777;SDS011;23615;51.506;7.678;2022-10-26T00:03:14;0.40;;;0.40;;
37777;SDS011;23615;51.506;7.678;2022-10-26T00:05:39;0.55;;;0.50;;
37777;SDS011;23615;51.506;7.678;2022-10-26T00:08:05;0.30;;;0.20;;
37777;SDS011;23615;51.506;7.678;2022-10-26T00:10:33;1.20;;;0.30;;
37777;SDS011;23615;51.506;7.678;2022-10-26T00:13:01;1.10;;;0.50;;
37777;SDS011;23615;51.506;7.678;2022-10-26T00:15:27;1.25;;;0.40;;
37777;SDS011;23615;51.506;7.678;2022-10-26T00:17:52;0.67;;;0.23;;
37777;SDS011;23615;51.506;7.678;2022-10-26T00:20:18;0.87;;;0.47;;
37777;SDS011;23615;51.506;7.678;2022-10-26T00:22:43;0.70;;;0.40;;
37777;SDS011;23615;51.506;7.678;2022-10-26T00:25:08;0.20;;;0.20;;
37777;SDS011;23615;51.506;7.678;2022-10-26T00:27:34;0.57;;;0.22;;
37777;SDS011;23615;51.506;7.678;2022-10-26T00:30:00;0.50;;;0.20;;
37777;SDS011;23615;51.506;7.678;2022-10-26T00:32:26;1.00;;;0.30;;
37777;SDS011;23615;51.506;7.678;2022-10-26T00:34:51;0.20;;;0.20;;
37777;SDS011;23615;51.506;7.678;2022-10-26T00:37:16;0.65;;;0.22;;
37777;SDS011;23615;51.506;7.678;2022-10-26T00:39:42;0.90;;;0.20;;
37777;SDS011;23615;51.506;7.678;2022-10-26T00:42:11;0.53;;;0.20;;
37777;SDS011;23615;51.506;7.678;2022-10-26T00:47:13;1.00;;;0.20;;
37777;SDS011;23615;51.506;7.678;2022-10-26T00:49:42;1.27;;;0.20;;
37777;SDS011;23615;51.506;7.678;2022-10-26T00:52:11;1.52;;;0.22;;
37777;SDS011;23615;51.506;7.678;2022-10-26T00:54:38;0.52;;;0.20;;
37777;SDS011;23615;51.506;7.678;2022-10-26T00:57:03;1.92;;;0.35;;
37777;SDS011;23615;51.506;7.678;2022-10-26T00:59:30;1.40;;;0.20;;
37777;SDS011;23615;51.506;7.678;2022-10-26T01:01:55;2.00;;;0.40;;
37777;SDS011;23615;51.506;7.678;2022-10-26T01:04:21;0.75;;;0.40;;
37777;SDS011;23615;51.506;7.678;2022-10-26T01:06:46;0.70;;;0.20;;
37777;SDS011;23615;51.506;7.678;2022-10-26T01:09:12;0.90;;;0.30;;
37777;SDS011;23615;51.506;7.678;2022-10-26T01:11:37;1.50;;;0.27;;
37777;SDS011;23615;51.506;7.678;2022-10-26T01:14:03;0.60;;;0.30;;
37777;SDS011;23615;51.506;7.678;2022-10-26T01:16:38;1.02;;;0.30;;
37777;SDS011;23615;51.506;7.678;2022-10-26T01:30:59;0.70;;;0.32;;
37777;SDS011;23615;51.506;7.678;2022-10-26T01:33:42;0.50;;;0.30;;
37777;SDS011;23615;51.506;7.678;2022-10-26T01:36:27;1.10;;;0.32;;
37777;SDS011;23615;51.506;7.678;2022-10-26T01:39:12;0.30;;;0.20;;
37777;SDS011;23615;51.506;7.678;2022-10-26T01:44:15;0.80;;;0.20;;
37777;SDS011;23615;51.506;7.678;2022-10-26T01:46:45;0.90;;;0.32;;
37777;SDS011;23615;51.506;7.678;2022-10-26T01:49:14;2.20;;;0.40;;
37777;SDS011;23615;51.506;7.678;2022-10-26T01:51:44;1.13;;;0.20;;
37777;SDS011;23615;51.506;7.678;2022-10-26T01:54:12;0.60;;;0.30;;
37777;SDS011;23615;51.506;7.678;2022-10-26T01:56:38;0.50;;;0.20;;
37777;SDS011;23615;51.506;7.678;2022-10-26T02:16:42;0.70;;;0.20;;
37777;SDS011;23615;51.506;7.678;2022-10-26T02:22:13;1.80;;;0.20;;
37777;SDS011;23615;51.506;7.678;2022-10-26T02:24:42;0.80;;;0.20;;
37777;SDS011;23615;51.506;7.678;2022-10-26T02:27:11;0.80;;;0.30;;
37777;SDS011;23615;51.506;7.678;2022-10-26T02:29:42;0.27;;;0.20;;
37777;SDS011;23615;51.506;7.678;2022-10-26T02:32:08;0.50;;;0.20;;
37777;SDS011;23615;51.506;7.678;2022-10-26T02:34:36;0.60;;;0.20;;
37777;SDS011;23615;51.506;7.678;2022-10-26T02:37:03;0.30;;;0.20;;
37777;SDS011;23615;51.506;7.678;2022-10-26T02:39:30;0.80;;;0.20;;
37777;SDS011;23615;51.506;7.678;2022-10-26T02:42:02;1.00;;;0.27;;
37777;SDS011;23615;51.506;7.678;2022-10-26T02:44:31;0.20;;;0.20;;
37777;SDS011;23615;51.506;7.678;2022-10-26T02:47:02;0.73;;;0.20;;
37777;SDS011;23615;51.506;7.678;2022-10-26T02:49:27;1.27;;;0.40;;
37777;SDS011;23615;51.506;7.678;2022-10-26T02:52:01;0.70;;;0.47;;
37777;SDS011;23615;51.506;7.678;2022-10-26T02:54:33;0.57;;;0.22;;
37777;SDS011;23615;51.506;7.678;2022-10-26T02:57:00;1.85;;;0.47;;
37777;SDS011;23615;51.506;7.678;2022-10-26T02:59:35;1.73;;;0.25;;
37777;SDS011;23615;51.506;7.678;2022-10-26T03:02:05;0.70;;;0.30;;
37777;SDS011;23615;51.506;7.678;2022-10-26T03:04:31;1.10;;;0.30;;
37777;SDS011;23615;51.506;7.678;2022-10-26T03:06:58;0.77;;;0.30;;
37777;SDS011;23615;51.506;7.678;2022-10-26T03:09:23;0.73;;;0.30;;
37777;SDS011;23615;51.506;7.678;2022-10-26T03:11:49;1.80;;;0.40;;
37777;SDS011;23615;51.506;7.678;2022-10-26T03:14:14;0.47;;;0.20;;
37777;SDS011;23615;51.506;7.678;2022-10-26T03:16:40;0.73;;;0.30;;
37777;SDS011;23615;51.506;7.678;2022-10-26T03:19:05;0.80;;;0.30;;
37777;SDS011;23615;51.506;7.678;2022-10-26T03:21:30;0.43;;;0.27;;
37777;SDS011;23615;51.506;7.678;2022-10-26T03:23:55;0.40;;;0.20;;
37777;SDS011;23615;51.506;7.678;2022-10-26T03:26:21;1.27;;;0.20;;
37777;SDS011;23615;51.506;7.678;2022-10-26T03:28:46;0.77;;;0.23;;
37777;SDS011;23615;51.506;7.678;2022-10-26T03:31:11;0.20;;;0.10;;
37777;SDS011;23615;51.506;7.678;2022-10-26T03:33:37;0.30;;;0.17;;
37777;SDS011;23615;51.506;7.678;2022-10-26T03:36:02;0.60;;;0.40;;
37777;SDS011;23615;51.506;7.678;2022-10-26T03:38:28;0.80;;;0.20;;
37777;SDS011;23615;51.506;7.678;2022-10-26T03:40:53;0.23;;;0.13;;
37777;SDS011;23615;51.506;7.678;2022-10-26T03:43:18;0.50;;;0.30;;
37777;SDS011;23615;51.506;7.678;2022-10-26T03:45:44;0.30;;;0.10;;
37777;SDS011;23615;51.506;7.678;2022-10-26T03:48:09;0.60;;;0.20;;
37777;SDS011;23615;51.506;7.678;2022-10-26T03:50:34;0.30;;;0.20;;
37777;SDS011;23615;51.506;7.678;2022-10-26T03:53:00;1.03;;;0.20;;
37777;SDS011;23615;51.506;7.678;2022-10-26T03:55:25;0.17;;;0.17;;
37777;SDS011;23615;51.506;7.678;2022-10-26T03:57:50;0.30;;;0.20;;
37777;SDS011;23615;51.506;7.678;2022-10-26T04:00:16;1.97;;;0.20;;
37777;SDS011;23615;51.506;7.678;2022-10-26T04:02:42;0.98;;;0.30;;
37777;SDS011;23615;51.506;7.678;2022-10-26T04:05:12;0.20;;;0.20;;
37777;SDS011;23615;51.506;7.678;2022-10-26T04:07:37;0.70;;;0.43;;
37777;SDS011;23615;51.506;7.678;2022-10-26T04:10:03;2.07;;;0.37;;
37777;SDS011;23615;51.506;7.678;2022-10-26T04:12:29;0.17;;;0.10;;
37777;SDS011;23615;51.506;7.678;2022-10-26T04:14:54;0.30;;;0.30;;
37777;SDS011;23615;51.506;7.678;2022-10-26T04:17:22;1.60;;;0.30;;
37777;SDS011;23615;51.506;7.678;2022-10-26T04:19:48;0.70;;;0.30;;
37777;SDS011;23615;51.506;7.678;2022-10-26T04:22:13;1.27;;;0.60;;
37777;SDS011;23615;51.506;7.678;2022-10-26T04:24:38;0.90;;;0.50;;
37777;SDS011;23615;51.506;7.678;2022-10-26T04:27:03;1.02;;;0.22;;
37777;SDS011;23615;51.506;7.678;2022-10-26T04:29:29;1.17;;;0.40;;
37777;SDS011;23615;51.506;7.678;2022-10-26T04:31:54;0.73;;;0.20;;
37777;SDS011;23615;51.506;7.678;2022-10-26T04:34:19;0.30;;;0.20;;
37777;SDS011;23615;51.506;7.678;2022-10-26T04:36:44;4.50;;;0.30;;
37777;SDS011;23615;51.506;7.678;2022-10-26T04:39:10;1.33;;;0.20;;
37777;SDS011;23615;51.506;7.678;2022-10-26T04:41:35;1.30;;;0.20;;
37777;SDS011;23615;51.506;7.678;2022-10-26T04:44:00;1.20;;;0.20;;
37777;SDS011;23615;51.506;7.678;2022-10-26T04:46:25;0.33;;;0.20;;
37777;SDS011;23615;51.506;7.678;2022-10-26T04:48:51;1.00;;;0.20;;
37777;SDS011;23615;51.506;7.678;2022-10-26T04:51:16;0.67;;;0.20;;
37777;SDS011;23615;51.506;7.678;2022-10-26T04:53:41;0.20;;;0.20;;
37777;SDS011;23615;51.506;7.678;2022-10-26T04:56:07;0.33;;;0.13;;
37777;SDS011;23615;51.506;7.678;2022-10-26T04:58:33;0.30;;;0.10;;
37777;SDS011;23615;51.506;7.678;2022-10-26T05:00:59;0.60;;;0.30;;
37777;SDS011;23615;51.506;7.678;2022-10-26T05:03:26;1.30;;;0.30;;
37777;SDS011;23615;51.506;7.678;2022-10-26T05:05:51;0.53;;;0.23;;
37777;SDS011;23615;51.506;7.678;2022-10-26T05:08:17;0.30;;;0.20;;
37777;SDS011;23615;51.506;7.678;2022-10-26T05:10:42;0.87;;;0.13;;
37777;SDS011;23615;51.506;7.678;2022-10-26T05:13:11;1.20;;;0.30;;
37777;SDS011;23615;51.506;7.678;2022-10-26T05:15:36;1.57;;;0.30;;
37777;SDS011;23615;51.506;7.678;2022-10-26T05:18:03;0.30;;;0.20;;
37777;SDS011;23615;51.506;7.678;2022-10-26T05:20:31;0.30;;;0.20;;
37777;SDS011;23615;51.506;7.678;2022-10-26T05:22:58;0.38;;;0.30;;
37777;SDS011;23615;51.506;7.678;2022-10-26T05:25:28;0.40;;;0.20;;
37777;SDS011;23615;51.506;7.678;2022-10-26T05:27:56;0.28;;;0.17;;
37777;SDS011;23615;51.506;7.678;2022-10-26T05:30:24;0.70;;;0.17;;
37777;SDS011;23615;51.506;7.678;2022-10-26T05:32:53;0.28;;;0.20;;
37777;SDS011;23615;51.506;7.678;2022-10-26T05:35:19;0.90;;;0.40;;
37777;SDS011;23615;51.506;7.678;2022-10-26T05:37:44;0.97;;;0.30;;
37777;SDS011;23615;51.506;7.678;2022-10-26T05:40:10;1.40;;;0.40;;
37777;SDS011;23615;51.506;7.678;2022-10-26T05:42:35;1.10;;;0.40;;
37777;SDS011;23615;51.506;7.678;2022-10-26T05:45:01;0.53;;;0.30;;
37777;SDS011;23615;51.506;7.678;2022-10-26T05:47:26;0.50;;;0.30;;
37777;SDS011;23615;51.506;7.678;2022-10-26T05:49:51;0.60;;;0.20;;
37777;SDS011;23615;51.506;7.678;2022-10-26T05:52:16;0.83;;;0.33;;
37777;SDS011;23615;51.506;7.678;2022-10-26T05:54:42;0.60;;;0.20;;
37777;SDS011;23615;51.506;7.678;2022-10-26T05:57:10;0.30;;;0.23;;
37777;SDS011;23615;51.506;7.678;2022-10-26T05:59:36;0.45;;;0.20;;
37777;SDS011;23615;51.506;7.678;2022-10-26T06:04:55;1.25;;;0.10;;
37777;SDS011;23615;51.506;7.678;2022-10-26T06:07:27;0.50;;;0.20;;
37777;SDS011;23615;51.506;7.678;2022-10-26T06:09:52;1.27;;;0.20;;
37777;SDS011;23615;51.506;7.678;2022-10-26T06:12:18;0.40;;;0.10;;
37777;SDS011;23615;51.506;7.678;2022-10-26T06:14:43;0.22;;;0.10;;
37777;SDS011;23615;51.506;7.678;2022-10-26T06:17:11;0.15;;;0.10;;
37777;SDS011;23615;51.506;7.678;2022-10-26T06:19:56;0.43;;;0.10;;
37777;SDS011;23615;51.506;7.678;2022-10-26T06:22:38;1.00;;;0.20;;
37777;SDS011;23615;51.506;7.678;2022-10-26T06:28:37;0.10;;;0.10;;
37777;SDS011;23615;51.506;7.678;2022-10-26T06:31:22;0.20;;;0.10;;
37777;SDS011;23615;51.506;7.678;2022-10-26T06:33:47;0.70;;;0.10;;
37777;SDS011;23615;51.506;7.678;2022-10-26T06:36:22;0.60;;;0.20;;
37777;SDS011;23615;51.506;7.678;2022-10-26T06:38:52;0.85;;;0.28;;
37777;SDS011;23615;51.506;7.678;2022-10-26T06:41:22;1.27;;;0.30;;
37777;SDS011;23615;51.506;7.678;2022-10-26T06:43:48;1.38;;;0.17;;
37777;SDS011;23615;51.506;7.678;2022-10-26T06:51:48;0.32;;;0.10;;
37777;SDS011;23615;51.506;7.678;2022-10-26T06:54:21;0.20;;;0.20;;
37777;SDS011;23615;51.506;7.678;2022-10-26T06:56:53;0.50;;;0.30;;
37777;SDS011;23615;51.506;7.678;2022-10-26T06:59:30;0.80;;;0.20;;
37777;SDS011;23615;51.506;7.678;2022-10-26T07:02:01;0.43;;;0.20;;
37777;SDS011;23615;51.506;7.678;2022-10-26T07:04:26;0.83;;;0.30;;
37777;SDS011;23615;51.506;7.678;2022-10-26T07:06:51;0.87;;;0.20;;
37777;SDS011;23615;51.506;7.678;2022-10-26T07:09:17;0.30;;;0.20;;
37777;SDS011;23615;51.506;7.678;2022-10-26T07:11:42;1.00;;;0.20;;
37777;SDS011;23615;51.506;7.678;2022-10-26T07:14:07;0.20;;;0.17;;
37777;SDS011;23615;51.506;7.678;2022-10-26T07:16:33;1.10;;;0.17;;
37777;SDS011;23615;51.506;7.678;2022-10-26T07:18:58;0.10;;;0.10;;
37777;SDS011;23615;51.506;7.678;2022-10-26T07:21:24;0.20;;;0.10;;
37777;SDS011;23615;51.506;7.678;2022-10-26T07:23:49;1.50;;;0.30;;
37777;SDS011;23615;51.506;7.678;2022-10-26T07:26:14;0.60;;;0.10;;
37777;SDS011;23615;51.506;7.678;2022-10-26T07:28:39;0.20;;;0.20;;
37777;SDS011;23615;51.506;7.678;2022-10-26T07:31:26;0.20;;;0.10;;
37777;SDS011;23615;51.506;7.678;2022-10-26T07:33:54;0.60;;;0.20;;
37777;SDS011;23615;51.506;7.678;2022-10-26T07:36:19;0.20;;;0.10;;
37777;SDS011;23615;51.506;7.678;2022-10-26T07:38:45;0.60;;;0.20;;
37777;SDS011;23615;51.506;7.678;2022-10-26T07:41:10;0.80;;;0.10;;
37777;SDS011;23615;51.506;7.678;2022-10-26T07:43:35;0.53;;;0.23;;
37777;SDS011;23615;51.506;7.678;2022-10-26T07:46:01;0.20;;;0.10;;
37777;SDS011;23615;51.506;7.678;2022-10-26T07:48:26;0.27;;;0.10;;
37777;SDS011;23615;51.506;7.678;2022-10-26T07:50:51;0.40;;;0.20;;
37777;SDS011;23615;51.506;7.678;2022-10-26T07:53:17;0.70;;;0.20;;
37777;SDS011;23615;51.506;7.678;2022-10-26T07:55:42;0.40;;;0.20;;
37777;SDS011;23615;51.506;7.678;2022-10-26T07:58:07;0.50;;;0.10;;
37777;SDS011;23615;51.506;7.678;2022-10-26T08:00:32;0.20;;;0.20;;
37777;SDS011;23615;51.506;7.678;2022-10-26T08:02:58;0.93;;;0.20;;
37777;SDS011;23615;51.506;7.678;2022-10-26T08:05:23;0.53;;;0.17;;
37777;SDS011;23615;51.506;7.678;2022-10-26T08:07:48;1.60;;;0.40;;
37777;SDS011;23615;51.506;7.678;2022-10-26T08:10:14;1.40;;;0.10;;
37777;SDS011;23615;51.506;7.678;2022-10-26T08:12:40;1.23;;;0.20;;
37777;SDS011;23615;51.506;7.678;2022-10-26T08:15:07;0.80;;;0.20;;
37777;SDS011;23615;51.506;7.678;2022-10-26T08:17:33;0.50;;;0.10;;
37777;SDS011;23615;51.506;7.678;2022-10-26T08:19:59;0.43;;;0.10;;
37777;SDS011;23615;51.506;7.678;2022-10-26T08:22:24;0.73;;;0.20;;
37777;SDS011;23615;51.506;7.678;2022-10-26T08:24:49;0.40;;;0.10;;
37777;SDS011;23615;51.506;7.678;2022-10-26T08:27:15;2.30;;;0.50;;
37777;SDS011;23615;51.506;7.678;2022-10-26T08:29:40;1.90;;;0.17;;
37777;SDS011;23615;51.506;7.678;2022-10-26T08:32:06;1.15;;;0.10;;
37777;SDS011;23615;51.506;7.678;2022-10-26T08:34:32;0.82;;;0.20;;
37777;SDS011;23615;51.506;7.678;2022-10-26T08:36:57;0.23;;;0.20;;
37777;SDS011;23615;51.506;7.678;2022-10-26T08:39:23;1.50;;;0.20;;
37777;SDS011;23615;51.506;7.678;2022-10-26T08:41:48;1.00;;;0.20;;
37777;SDS011;23615;51.506;7.678;2022-10-26T08:44:33;2.20;;;0.40;;
37777;SDS011;23615;51.506;7.678;2022-10-26T08:47:12;0.88;;;0.20;;
37777;SDS011;23615;51.506;7.678;2022-10-26T08:49:47;2.40;;;0.20;;
37777;SDS011;23615;51.506;7.678;2022-10-26T08:52:18;1.30;;;0.10;;
37777;SDS011;23615;51.506;7.678;2022-10-26T08:54:51;1.30;;;0.30;;
37777;SDS011;23615;51.506;7.678;2022-10-26T08:59:53;0.82;;;0.20;;
37777;SDS011;23615;51.506;7.678;2022-10-26T09:02:21;2.60;;;0.32;;
37777;SDS011;23615;51.506;7.678;2022-10-26T09:04:48;0.93;;;0.20;;
37777;SDS011;23615;51.506;7.678;2022-10-26T09:07:24;0.90;;;0.20;;
37777;SDS011;23615;51.506;7.678;2022-10-26T09:16:50;2.05;;;0.30;;
37777;SDS011;23615;51.506;7.678;2022-10-26T09:24:41;1.05;;;0.40;;
37777;SDS011;23615;51.506;7.678;2022-10-26T09:29:47;1.27;;;0.50;;
37777;SDS011;23615;51.506;7.678;2022-10-26T09:32:18;1.17;;;0.40;;
37777;SDS011;23615;51.506;7.678;2022-10-26T09:34:51;2.55;;;0.32;;
37777;SDS011;23615;51.506;7.678;2022-10-26T09:37:22;2.60;;;0.40;;
37777;SDS011;23615;51.506;7.678;2022-10-26T09:42:54;1.38;;;0.22;;
37777;SDS011;23615;51.506;7.678;2022-10-26T09:45:29;1.43;;;0.30;;
37777;SDS011;23615;51.506;7.678;2022-10-26T09:47:59;3.27;;;0.57;;
37777;SDS011;23615;51.506;7.678;2022-10-26T09:50:35;3.20;;;0.68;;
37777;SDS011;23615;51.506;7.678;2022-10-26T09:53:03;2.55;;;0.65;;
37777;SDS011;23615;51.506;7.678;2022-10-26T09:55:30;2.60;;;0.60;;
37777;SDS011;23615;51.506;7.678;2022-10-26T09:57:57;1.95;;;0.30;;
37777;SDS011;23615;51.506;7.678;2022-10-26T10:00:28;1.30;;;0.32;;
37777;SDS011;23615;51.506;7.678;2022-10-26T10:02:54;2.30;;;0.53;;
37777;SDS011;23615;51.506;7.678;2022-10-26T10:05:25;1.95;;;0.40;;
37777;SDS011;23615;51.506;7.678;2022-10-26T10:08:08;1.15;;;0.30;;
37777;SDS011;23615;51.506;7.678;2022-10-26T10:10:35;2.72;;;0.40;;
37777;SDS011;23615;51.506;7.678;2022-10-26T10:13:12;2.37;;;0.40;;
37777;SDS011;23615;51.506;7.678;2022-10-26T10:15:49;4.10;;;0.60;;
37777;SDS011;23615;51.506;7.678;2022-10-26T10:18:18;2.10;;;0.38;;
37777;SDS011;23615;51.506;7.678;2022-10-26T10:20:49;2.40;;;0.40;;
37777;SDS011;23615;51.506;7.678;2022-10-26T10:23:27;2.63;;;0.40;;
37777;SDS011;23615;51.506;7.678;2022-10-26T10:25:58;3.83;;;0.38;;
37777;SDS011;23615;51.506;7.678;2022-10-26T10:28:29;1.57;;;0.40;;
37777;SDS011;23615;51.506;7.678;2022-10-26T10:30:55;3.20;;;0.67;;
37777;SDS011;23615;51.506;7.678;2022-10-26T10:33:30;2.90;;;0.40;;
37777;SDS011;23615;51.506;7.678;2022-10-26T10:36:01;1.38;;;0.47;;
37777;SDS011;23615;51.506;7.678;2022-10-26T10:38:30;3.90;;;0.70;;
37777;SDS011;23615;51.506;7.678;2022-10-26T10:41:01;1.70;;;0.40;;
37777;SDS011;23615;51.506;7.678;2022-10-26T10:43:28;2.47;;;0.57;;
37777;SDS011;23615;51.506;7.678;2022-10-26T10:45:54;4.00;;;0.47;;
37777;SDS011;23615;51.506;7.678;2022-10-26T10:48:28;1.60;;;0.30;;
37777;SDS011;23615;51.506;7.678;2022-10-26T10:59:00;3.33;;;0.68;;
37777;SDS011;23615;51.506;7.678;2022-10-26T11:01:31;3.00;;;0.50;;
37777;SDS011;23615;51.506;7.678;2022-10-26T11:06:30;3.45;;;0.60;;
37777;SDS011;23615;51.506;7.678;2022-10-26T11:09:04;2.53;;;0.50;;
37777;SDS011;23615;51.506;7.678;2022-10-26T11:11:39;2.53;;;0.50;;
37777;SDS011;23615;51.506;7.678;2022-10-26T11:14:19;4.03;;;0.60;;
37777;SDS011;23615;51.506;7.678;2022-10-26T11:16:51;1.48;;;0.40;;
37777;SDS011;23615;51.506;7.678;2022-10-26T11:21:53;3.22;;;0.73;;
37777;SDS011;23615;51.506;7.678;2022-10-26T11:24:27;3.58;;;0.45;;
37777;SDS011;23615;51.506;7.678;2022-10-26T11:27:08;3.25;;;0.60;;
37777;SDS011;23615;51.506;7.678;2022-10-26T11:32:35;2.67;;;0.67;;
37777;SDS011;23615;51.506;7.678;2022-10-26T11:35:17;1.85;;;0.70;;
37777;SDS011;23615;51.506;7.678;2022-10-26T11:37:54;3.38;;;0.70;;
37777;SDS011;23615;51.506;7.678;2022-10-26T11:40:39;4.80;;;0.60;;
37777;SDS011;23615;51.506;7.678;2022-10-26T11:43:15;2.28;;;1.00;;
37777;SDS011;23615;51.506;7.678;2022-10-26T11:45:56;3.03;;;0.63;;
37777;SDS011;23615;51.506;7.678;2022-10-26T11:53:54;2.58;;;0.50;;
37777;SDS011;23615;51.506;7.678;2022-10-26T11:56:32;3.05;;;0.68;;
37777;SDS011;23615;51.506;7.678;2022-10-26T11:59:02;1.57;;;0.60;;
37777;SDS011;23615;51.506;7.678;2022-10-26T12:01:28;3.63;;;0.60;;
37777;SDS011;23615;51.506;7.678;2022-10-26T12:03:55;2.83;;;0.70;;
37777;SDS011;23615;51.506;7.678;2022-10-26T12:06:25;4.70;;;0.77;;
37777;SDS011;23615;51.506;7.678;2022-10-26T12:14:11;4.47;;;0.75;;
37777;SDS011;23615;51.506;7.678;2022-10-26T12:17:01;3.05;;;0.50;;
37777;SDS011;23615;51.506;7.678;2022-10-26T12:19:30;3.47;;;0.70;;
37777;SDS011;23615;51.506;7.678;2022-10-26T12:22:02;3.83;;;0.50;;
37777;SDS011;23615;51.506;7.678;2022-10-26T12:24:29;4.80;;;0.70;;
37777;SDS011;23615;51.506;7.678;2022-10-26T12:27:00;3.38;;;0.50;;
37777;SDS011;23615;51.506;7.678;2022-10-26T12:29:28;3.25;;;0.93;;
37777;SDS011;23615;51.506;7.678;2022-10-26T12:31:55;3.70;;;0.65;;
37777;SDS011;23615;51.506;7.678;2022-10-26T12:34:56;3.40;;;0.40;;
37777;SDS011;23615;51.506;7.678;2022-10-26T12:37:20;4.28;;;0.80;;
37777;SDS011;23615;51.506;7.678;2022-10-26T12:39:52;3.05;;;0.63;;
37777;SDS011;23615;51.506;7.678;2022-10-26T12:52:39;3.13;;;0.52;;
37777;SDS011;23615;51.506;7.678;2022-10-26T12:57:44;2.30;;;0.50;;
37777;SDS011;23615;51.506;7.678;2022-10-26T13:00:16;2.13;;;0.50;;
37777;SDS011;23615;51.506;7.678;2022-10-26T13:05:45;1.63;;;0.50;;
37777;SDS011;23615;51.506;7.678;2022-10-26T13:08:37;1.58;;;0.47;;
37777;SDS011;23615;51.506;7.678;2022-10-26T13:14:03;2.63;;;0.70;;
37777;SDS011;23615;51.506;7.678;2022-10-26T13:16:30;2.45;;;0.40;;
37777;SDS011;23615;51.506;7.678;2022-10-26T13:18:55;0.90;;;0.30;;
37777;SDS011;23615;51.506;7.678;2022-10-26T13:21:22;3.47;;;0.30;;
37777;SDS011;23615;51.506;7.678;2022-10-26T13:26:28;5.90;;;0.40;;
37777;SDS011;23615;51.506;7.678;2022-10-26T13:28:55;1.77;;;0.38;;
37777;SDS011;23615;51.506;7.678;2022-10-26T13:33:55;3.10;;;0.52;;
37777;SDS011;23615;51.506;7.678;2022-10-26T13:36:32;1.80;;;0.60;;
37777;SDS011;23615;51.506;7.678;2022-10-26T13:39:05;3.83;;;0.40;;
37777;SDS011;23615;51.506;7.678;2022-10-26T13:41:54;3.37;;;0.43;;
37777;SDS011;23615;51.506;7.678;2022-10-26T13:44:25;1.05;;;0.40;;
37777;SDS011;23615;51.506;7.678;2022-10-26T13:46:57;4.83;;;0.40;;
37777;SDS011;23615;51.506;7.678;2022-10-26T13:49:34;1.13;;;0.30;;
37777;SDS011;23615;51.506;7.678;2022-10-26T13:52:03;2.65;;;0.60;;
37777;SDS011;23615;51.506;7.678;2022-10-26T13:54:49;4.10;;;0.90;;
37777;SDS011;23615;51.506;7.678;2022-10-26T13:57:36;1.40;;;0.52;;
37777;SDS011;23615;51.506;7.678;2022-10-26T14:00:15;4.13;;;1.00;;
37777;SDS011;23615;51.506;7.678;2022-10-26T14:02:45;1.80;;;0.60;;
37777;SDS011;23615;51.506;7.678;2022-10-26T14:05:13;1.67;;;0.40;;
37777;SDS011;23615;51.506;7.678;2022-10-26T14:10:27;4.60;;;0.50;;
37777;SDS011;23615;51.506;7.678;2022-10-26T14:12:56;2.42;;;0.63;;
37777;SDS011;23615;51.506;7.678;2022-10-26T14:15:23;2.90;;;0.40;;
37777;SDS011;23615;51.506;7.678;2022-10-26T14:17:51;3.00;;;0.43;;
37777;SDS011;23615;51.506;7.678;2022-10-26T14:20:18;2.05;;;0.30;;
37777;SDS011;23615;51.506;7.678;2022-10-26T14:22:45;1.95;;;0.30;;
37777;SDS011;23615;51.506;7.678;2022-10-26T14:25:18;3.10;;;0.60;;
37777;SDS011;23615;51.506;7.678;2022-10-26T14:27:49;3.40;;;0.70;;
37777;SDS011;23615;51.506;7.678;2022-10-26T14:30:22;1.55;;;0.30;;
37777;SDS011;23615;51.506;7.678;2022-10-26T14:33:00;3.28;;;0.43;;
37777;SDS011;23615;51.506;7.678;2022-10-26T14:35:41;2.33;;;0.35;;
37777;SDS011;23615;51.506;7.678;2022-10-26T14:38:18;1.40;;;0.30;;
37777;SDS011;23615;51.506;7.678;2022-10-26T14:40:50;2.30;;;0.40;;
37777;SDS011;23615;51.506;7.678;2022-10-26T14:43:20;1.60;;;0.30;;
37777;SDS011;23615;51.506;7.678;2022-10-26T14:45:48;1.60;;;0.30;;
37777;SDS011;23615;51.506;7.678;2022-10-26T14:50:59;1.10;;;0.35;;
37777;SDS011;23615;51.506;7.678;2022-10-26T14:53:46;1.60;;;0.30;;
37777;SDS011;23615;51.506;7.678;2022-10-26T14:56:25;2.70;;;0.30;;
37777;SDS011;23615;51.506;7.678;2022-10-26T14:58:54;0.95;;;0.30;;
37777;SDS011;23615;51.506;7.678;2022-10-26T15:03:46;3.40;;;0.40;;
37777;SDS011;23615;51.506;7.678;2022-10-26T15:08:56;0.30;;;0.15;;
37777;SDS011;23615;51.506;7.678;2022-10-26T15:11:25;1.20;;;0.35;;
37777;SDS011;23615;51.506;7.678;2022-10-26T15:13:51;1.17;;;0.40;;
37777;SDS011;23615;51.506;7.678;2022-10-26T15:16:19;1.02;;;0.22;;
37777;SDS011;23615;51.506;7.678;2022-10-26T15:18:47;0.70;;;0.28;;
37777;SDS011;23615;51.506;7.678;2022-10-26T15:21:19;1.88;;;0.50;;
37777;SDS011;23615;51.506;7.678;2022-10-26T15:23:47;1.23;;;0.20;;
37777;SDS011;23615;51.506;7.678;2022-10-26T15:26:13;0.30;;;0.30;;
37777;SDS011;23615;51.506;7.678;2022-10-26T15:28:39;0.60;;;0.30;;
37777;SDS011;23615;51.506;7.678;2022-10-26T15:33:37;2.20;;;0.40;;
37777;SDS011;23615;51.506;7.678;2022-10-26T15:36:08;1.45;;;0.57;;
37777;SDS011;23615;51.506;7.678;2022-10-26T15:38:37;1.75;;;0.50;;
37777;SDS011;23615;51.506;7.678;2022-10-26T15:41:03;1.60;;;0.30;;
37777;SDS011;23615;51.506;7.678;2022-10-26T15:43:30;1.30;;;0.40;;
37777;SDS011;23615;51.506;7.678;2022-10-26T15:45:55;3.00;;;0.27;;
37777;SDS011;23615;51.506;7.678;2022-10-26T15:48:27;2.17;;;0.33;;
37777;SDS011;23615;51.506;7.678;2022-10-26T15:50:55;0.80;;;0.22;;
37777;SDS011;23615;51.506;7.678;2022-10-26T15:53:22;1.77;;;0.28;;
37777;SDS011;23615;51.506;7.678;2022-10-26T15:55:52;4.78;;;0.50;;
37777;SDS011;23615;51.506;7.678;2022-10-26T15:58:20;4.78;;;0.57;;
37777;SDS011;23615;51.506;7.678;2022-10-26T16:00:45;1.80;;;0.40;;
37777;SDS011;23615;51.506;7.678;2022-10-26T16:03:12;3.33;;;0.60;;
37777;SDS011;23615;51.506;7.678;2022-10-26T16:05:38;3.10;;;0.43;;
37777;SDS011;23615;51.506;7.678;2022-10-26T16:08:03;2.80;;;0.60;;
37777;SDS011;23615;51.506;7.678;2022-10-26T16:10:29;4.83;;;1.00;;
37777;SDS011;23615;51.506;7.678;2022-10-26T16:12:54;2.70;;;0.40;;
37777;SDS011;23615;51.506;7.678;2022-10-26T16:15:21;0.93;;;0.30;;
37777;SDS011;23615;51.506;7.678;2022-10-26T16:17:48;1.08;;;0.20;;
37777;SDS011;23615;51.506;7.678;2022-10-26T16:20:18;2.80;;;0.30;;
37777;SDS011;23615;51.506;7.678;2022-10-26T16:22:49;1.75;;;0.20;;
37777;SDS011;23615;51.506;7.678;2022-10-26T16:25:16;1.40;;;0.30;;
37777;SDS011;23615;51.506;7.678;2022-10-26T16:27:43;0.75;;;0.10;;
37777;SDS011;23615;51.506;7.678;2022-10-26T16:30:09;1.87;;;0.30;;
37777;SDS011;23615;51.506;7.678;2022-10-26T16:32:36;0.47;;;0.17;;
37777;SDS011;23615;51.506;7.678;2022-10-26T16:35:02;0.83;;;0.30;;
37777;SDS011;23615;51.506;7.678;2022-10-26T16:37:27;1.77;;;0.27;;
37777;SDS011;23615;51.506;7.678;2022-10-26T16:39:54;1.42;;;0.22;;
37777;SDS011;23615;51.506;7.678;2022-10-26T16:42:19;1.50;;;0.30;;
37777;SDS011;23615;51.506;7.678;2022-10-26T16:44:44;0.80;;;0.30;;
37777;SDS011;23615;51.506;7.678;2022-10-26T16:47:10;2.00;;;0.20;;
37777;SDS011;23615;51.506;7.678;2022-10-26T16:49:35;0.30;;;0.20;;
37777;SDS011;23615;51.506;7.678;2022-10-26T16:52:00;1.30;;;0.20;;
37777;SDS011;23615;51.506;7.678;2022-10-26T16:54:25;1.00;;;0.30;;
37777;SDS011;23615;51.506;7.678;2022-10-26T16:56:54;0.30;;;0.20;;
37777;SDS011;23615;51.506;7.678;2022-10-26T16:59:20;0.53;;;0.20;;
37777;SDS011;23615;51.506;7.678;2022-10-26T17:01:45;1.83;;;0.20;;
37777;SDS011;23615;51.506;7.678;2022-10-26T17:04:10;1.93;;;0.20;;
37777;SDS011;23615;51.506;7.678;2022-10-26T17:06:35;1.33;;;0.30;;
37777;SDS011;23615;51.506;7.678;2022-10-26T17:09:01;0.30;;;0.20;;
37777;SDS011;23615;51.506;7.678;2022-10-26T17:11:26;0.50;;;0.30;;